Time;durP1;ratioP1;P1;durP2;ratioP2;P2;SDS_P1;SDS_P2;PMS_P1;PMS_P2;Temp;Humidity;BMP_temperature;BMP_pressure;BME280_temperature;BME280_humidity;BME280_pressure;Samples;Min_cycle;Max_cycle;Signal;HPM_P1;HPM_P2
2023/07/07 00:02:04;;;;;;;6.13;2.23;;;12.90;99.90;;;;;;5056180;28;20179;-90
2023/07/07 00:04:30;;;;;;;3.33;1.63;;;12.90;99.90;;;;;;5074160;28;20171;-90
2023/07/07 00:06:55;;;;;;;4.90;1.70;;;12.80;99.90;;;;;;5056703;28;20309;-90
2023/07/07 00:09:21;;;;;;;2.07;1.70;;;12.80;99.90;;;;;;5073557;28;20571;-90
2023/07/07 00:11:47;;;;;;;6.37;2.00;;;12.80;99.90;;;;;;5055644;28;20550;-90
2023/07/07 00:14:12;;;;;;;4.10;1.80;;;12.80;99.90;;;;;;5073543;28;20216;-90
2023/07/07 00:16:38;;;;;;;3.87;1.80;;;12.80;99.90;;;;;;5055557;28;20182;-90
2023/07/07 00:19:09;;;;;;;3.57;1.77;;;12.80;99.90;;;;;;5055712;28;20203;-90
2023/07/07 00:21:40;;;;;;;5.57;2.00;;;12.80;99.90;;;;;;5073636;28;20152;-90
2023/07/07 00:24:07;;;;;;;3.90;1.97;;;12.70;99.90;;;;;;5055410;28;20163;-90
2023/07/07 00:26:34;;;;;;;3.63;1.73;;;12.70;99.90;;;;;;5055480;28;20198;-90
2023/07/07 00:29:00;;;;;;;5.30;1.67;;;12.70;99.90;;;;;;5073307;28;20186;-90
2023/07/07 00:31:26;;;;;;;2.37;1.70;;;12.70;99.90;;;;;;5073580;28;20171;-89
2023/07/07 00:33:52;;;;;;;3.53;1.60;;;12.70;99.90;;;;;;5055032;28;20198;-89
2023/07/07 00:36:18;;;;;;;3.80;1.73;;;12.60;99.90;;;;;;5073284;28;20640;-89
2023/07/07 00:38:43;;;;;;;2.87;1.80;;;12.70;99.90;;;;;;5055317;28;20183;-89
2023/07/07 00:41:10;;;;;;;3.20;1.80;;;12.60;99.90;;;;;;5073326;28;20249;-89
2023/07/07 00:43:36;;;;;;;6.50;1.80;;;12.60;99.90;;;;;;5073335;28;20705;-90
2023/07/07 00:46:03;;;;;;;3.43;1.80;;;12.60;99.90;;;;;;5073465;28;20678;-89
2023/07/07 00:48:41;;;;;;;3.77;2.00;;;12.60;99.90;;;;;;5073424;28;20196;-90
2023/07/07 00:51:12;;;;;;;4.23;1.77;;;12.50;99.90;;;;;;5055440;28;20245;-90
2023/07/07 00:53:40;;;;;;;5.17;1.73;;;12.50;99.90;;;;;;5073462;28;20156;-89
2023/07/07 00:56:15;;;;;;;2.87;1.77;;;12.70;99.90;;;;;;5073777;28;20162;-89
2023/07/07 00:58:42;;;;;;;5.80;2.00;;;12.50;99.90;;;;;;5072972;28;20151;-89
2023/07/07 01:01:13;;;;;;;3.60;1.83;;;12.40;99.90;;;;;;5058276;28;20179;-90
2023/07/07 01:03:42;;;;;;;3.27;1.60;;;12.50;99.90;;;;;;5077560;28;20470;-89
2023/07/07 01:06:12;;;;;;;6.23;1.70;;;12.30;99.90;;;;;;5058812;28;20199;-89
2023/07/07 01:08:40;;;;;;;4.43;1.67;;;12.30;99.90;;;;;;5077332;28;20171;-89
2023/07/07 01:11:06;;;;;;;2.83;1.83;;;12.30;99.90;;;;;;5077434;28;20679;-89
2023/07/07 01:13:32;;;;;;;3.37;1.70;;;12.30;99.90;;;;;;5076904;28;20171;-90
2023/07/07 01:16:05;;;;;;;2.60;2.00;;;12.20;99.90;;;;;;5077222;28;20665;-90
2023/07/07 01:18:38;;;;;;;4.70;1.63;;;13.10;99.90;;;;;;5076804;28;20190;-90
2023/07/07 01:21:20;;;;;;;7.07;2.20;;;12.20;99.90;;;;;;5076893;28;20238;-90
2023/07/07 01:24:24;;;;;;;2.87;1.70;;;12.10;99.90;;;;;;5077135;28;20217;-90
2023/07/07 01:27:12;;;;;;;2.13;1.90;;;12.10;99.90;;;;;;5044338;28;20203;-89
2023/07/07 01:29:56;;;;;;;2.90;1.63;;;12.00;99.90;;;;;;5077184;28;20195;-89
2023/07/07 01:32:27;;;;;;;4.03;1.90;;;12.00;99.90;;;;;;5059012;28;20183;-89
2023/07/07 01:34:59;;;;;;;4.33;2.03;;;12.00;99.90;;;;;;5076688;28;20183;-90
2023/07/07 01:37:25;;;;;;;3.33;2.07;;;12.00;99.90;;;;;;5058796;28;20179;-90
2023/07/07 01:39:52;;;;;;;2.70;1.70;;;11.90;99.90;;;;;;5058351;28;20207;-90
2023/07/07 01:42:31;;;;;;;4.57;2.00;;;11.90;99.90;;;;;;5076650;28;20202;-89
2023/07/07 01:45:04;;;;;;;2.60;1.87;;;11.90;99.90;;;;;;5058775;28;20171;-89
2023/07/07 01:47:38;;;;;;;1.93;1.67;;;11.90;99.90;;;;;;5057811;28;20175;-89
2023/07/07 01:50:16;;;;;;;6.17;2.47;;;11.80;99.90;;;;;;5057945;28;20194;-90
2023/07/07 01:52:46;;;;;;;7.50;2.23;;;11.80;99.90;;;;;;5075721;28;20155;-89
2023/07/07 01:55:19;;;;;;;3.07;2.00;;;11.70;99.90;;;;;;5057922;28;20158;-90
2023/07/07 01:57:47;;;;;;;4.00;2.27;;;11.70;99.90;;;;;;5075644;28;20163;-89
2023/07/07 02:00:15;;;;;;;3.93;1.93;;;11.70;99.90;;;;;;5057448;28;20191;-89
2023/07/07 02:02:41;;;;;;;5.30;1.80;;;11.70;99.90;;;;;;5057627;28;20258;-90
2023/07/07 02:05:07;;;;;;;2.67;2.07;;;11.70;99.90;;;;;;5075298;28;20199;-89
2023/07/07 02:07:33;;;;;;;2.47;1.80;;;11.70;99.90;;;;;;5057286;28;20179;-89
2023/07/07 02:09:59;;;;;;;2.13;1.53;;;11.60;99.90;;;;;;5057139;28;20286;-89
2023/07/07 02:12:24;;;;;;;4.53;1.60;;;11.60;99.90;;;;;;5056141;28;20208;-89
2023/07/07 02:14:50;;;;;;;5.20;1.80;;;11.60;99.90;;;;;;5075259;28;20178;-89
2023/07/07 02:17:16;;;;;;;4.43;1.70;;;11.50;99.90;;;;;;5075011;28;20291;-89
2023/07/07 02:19:42;;;;;;;2.37;1.50;;;11.40;99.90;;;;;;5057239;28;20672;-89
2023/07/07 02:22:08;;;;;;;3.70;2.03;;;11.50;99.90;;;;;;5057221;28;20171;-89
2023/07/07 02:24:34;;;;;;;3.37;2.13;;;11.50;99.90;;;;;;5057030;28;20179;-89
2023/07/07 02:27:01;;;;;;;4.20;1.87;;;11.50;99.90;;;;;;5057119;28;20205;-90
2023/07/07 02:29:27;;;;;;;2.77;1.90;;;11.60;99.90;;;;;;5056930;28;20218;-89
2023/07/07 02:31:52;;;;;;;2.10;1.80;;;11.50;99.90;;;;;;5074878;28;20644;-89
2023/07/07 02:34:18;;;;;;;2.73;1.80;;;11.40;99.90;;;;;;5057061;28;20713;-89
2023/07/07 02:36:44;;;;;;;2.90;1.90;;;11.40;99.90;;;;;;5057396;28;20579;-89
2023/07/07 02:39:09;;;;;;;9.93;2.47;;;11.40;99.90;;;;;;5075002;28;20229;-89
2023/07/07 02:41:35;;;;;;;3.97;2.10;;;11.40;99.90;;;;;;5057725;28;20256;-89
2023/07/07 02:44:00;;;;;;;2.23;1.87;;;11.40;99.90;;;;;;5075028;28;20171;-89
2023/07/07 02:46:26;;;;;;;2.90;1.80;;;11.30;99.90;;;;;;5056732;28;20245;-90
2023/07/07 02:48:52;;;;;;;3.83;2.10;;;11.30;99.90;;;;;;5056719;28;20230;-89
2023/07/07 02:51:17;;;;;;;2.23;1.67;;;12.50;99.90;;;;;;5075701;28;20296;-90
2023/07/07 02:53:43;;;;;;;2.93;1.87;;;11.20;99.90;;;;;;5056435;28;20171;-89
2023/07/07 02:56:08;;;;;;;4.47;2.27;;;11.30;99.90;;;;;;5074601;28;20183;-89
2023/07/07 02:58:34;;;;;;;2.77;1.83;;;11.30;99.90;;;;;;5074681;28;20182;-89
2023/07/07 03:01:12;;;;;;;2.43;1.80;;;11.30;99.90;;;;;;5074743;28;20178;-89
2023/07/07 03:03:43;;;;;;;2.57;1.53;;;11.20;99.90;;;;;;5057069;28;20169;-89
2023/07/07 03:06:12;;;;;;;3.73;1.80;;;11.20;99.90;;;;;;5074694;28;20202;-89
2023/07/07 03:08:38;;;;;;;2.70;1.87;;;11.40;99.90;;;;;;5074699;28;20197;-89
2023/07/07 03:11:06;;;;;;;3.10;1.67;;;11.20;99.90;;;;;;5074760;28;20170;-89
2023/07/07 03:13:32;;;;;;;3.00;1.80;;;11.20;99.90;;;;;;5056510;28;20579;-89
2023/07/07 03:15:57;;;;;;;2.40;1.60;;;11.30;99.90;;;;;;5074593;28;20167;-89
2023/07/07 03:18:23;;;;;;;3.17;1.90;;;11.60;99.90;;;;;;5056284;28;20198;-90
2023/07/07 03:20:48;;;;;;;3.17;1.97;;;11.20;99.90;;;;;;5056071;28;20290;-90
2023/07/07 03:23:14;;;;;;;2.87;1.83;;;11.10;99.90;;;;;;5073787;28;20177;-90
2023/07/07 03:25:40;;;;;;;2.93;1.80;;;11.20;99.90;;;;;;5056472;28;20699;-89
2023/07/07 03:28:05;;;;;;;2.40;1.70;;;11.20;99.90;;;;;;5074597;28;20562;-90
2023/07/07 03:30:34;;;;;;;3.70;1.97;;;11.10;99.90;;;;;;5056606;28;20270;-89
2023/07/07 03:33:00;;;;;;;5.30;2.07;;;11.10;99.90;;;;;;5074139;28;20258;-89
2023/07/07 03:35:25;;;;;;;3.40;1.90;;;11.70;99.90;;;;;;5074325;28;20722;-90
2023/07/07 03:37:51;;;;;;;1.70;1.50;;;11.10;99.90;;;;;;5073921;28;20181;-89
2023/07/07 03:40:16;;;;;;;5.23;1.50;;;11.10;99.90;;;;;;5073971;28;20692;-90
2023/07/07 03:42:42;;;;;;;2.73;1.90;;;11.10;99.90;;;;;;5056749;28;20174;-89
2023/07/07 03:45:08;;;;;;;2.97;1.87;;;11.50;99.90;;;;;;5073623;28;20171;-90
2023/07/07 03:47:33;;;;;;;2.60;1.67;;;11.10;99.90;;;;;;5055887;28;20188;-89
2023/07/07 03:49:59;;;;;;;3.10;2.10;;;11.10;99.90;;;;;;5073640;28;20273;-89
2023/07/07 03:52:25;;;;;;;2.53;2.00;;;11.10;99.90;;;;;;5056556;28;20185;-89
2023/07/07 03:54:50;;;;;;;2.77;1.77;;;11.10;99.90;;;;;;5073574;28;20210;-90
2023/07/07 03:57:16;;;;;;;3.40;1.70;;;11.10;99.90;;;;;;5056031;28;20270;-89
2023/07/07 03:59:42;;;;;;;2.63;1.73;;;11.30;99.90;;;;;;5073849;28;20262;-90
2023/07/07 04:02:08;;;;;;;4.00;1.70;;;11.10;99.90;;;;;;5073593;28;20163;-90
2023/07/07 04:04:34;;;;;;;3.10;1.77;;;11.00;99.90;;;;;;5055756;28;20601;-90
2023/07/07 04:06:59;;;;;;;2.23;1.60;;;10.90;99.90;;;;;;5073509;28;20282;-90
2023/07/07 04:09:25;;;;;;;3.30;1.80;;;11.10;99.90;;;;;;5073532;28;20250;-90
2023/07/07 04:11:51;;;;;;;3.63;2.00;;;10.90;99.90;;;;;;5056399;28;20304;-89
2023/07/07 04:14:18;;;;;;;2.27;1.87;;;10.90;99.90;;;;;;5056622;28;20193;-89
2023/07/07 04:16:44;;;;;;;3.03;1.90;;;10.90;99.90;;;;;;5073897;28;20220;-89
2023/07/07 04:19:09;;;;;;;4.40;1.90;;;11.00;99.90;;;;;;5074019;28;20198;-89
2023/07/07 04:21:35;;;;;;;4.07;2.03;;;11.00;99.90;;;;;;5055557;28;20269;-89
2023/07/07 04:24:01;;;;;;;5.10;1.97;;;11.00;99.90;;;;;;5055368;28;20178;-89
2023/07/07 04:26:29;;;;;;;3.37;1.57;;;11.00;99.90;;;;;;5073222;28;20600;-90
2023/07/07 04:28:57;;;;;;;3.17;1.80;;;10.90;99.90;;;;;;5055681;28;20191;-89
2023/07/07 04:31:24;;;;;;;2.60;1.87;;;10.90;99.90;;;;;;5073717;28;20232;-89
2023/07/07 04:33:51;;;;;;;3.30;1.83;;;10.90;99.90;;;;;;5055529;28;20171;-89
2023/07/07 04:36:16;;;;;;;2.50;1.70;;;10.90;99.90;;;;;;5072480;28;20166;-89
2023/07/07 04:38:44;;;;;;;5.53;2.03;;;11.70;99.90;;;;;;5055133;28;20540;-90
2023/07/07 04:41:12;;;;;;;2.33;1.70;;;11.00;99.90;;;;;;5055343;28;20175;-89
2023/07/07 04:43:41;;;;;;;2.40;2.10;;;11.00;99.90;;;;;;5054879;28;20595;-90
2023/07/07 04:46:08;;;;;;;2.13;1.80;;;11.50;99.90;;;;;;5055505;28;20283;-89
2023/07/07 04:48:34;;;;;;;4.53;2.17;;;11.20;99.90;;;;;;5055687;28;20513;-89
2023/07/07 04:51:01;;;;;;;3.90;1.83;;;11.00;99.90;;;;;;5056547;28;20175;-89
2023/07/07 04:53:29;;;;;;;3.30;1.80;;;11.70;99.90;;;;;;5074152;28;20175;-90
2023/07/07 04:55:56;;;;;;;5.20;2.00;;;11.80;99.90;;;;;;5057127;28;20187;-89
2023/07/07 04:58:22;;;;;;;2.40;1.70;;;11.10;99.90;;;;;;5056072;28;20175;-89
2023/07/07 05:00:48;;;;;;;3.53;1.90;;;11.10;99.90;;;;;;5074500;28;20191;-89
2023/07/07 05:03:14;;;;;;;3.13;1.83;;;11.20;99.90;;;;;;5057873;28;20250;-89
2023/07/07 05:05:39;;;;;;;2.17;1.87;;;11.60;99.90;;;;;;5057445;28;20237;-89
2023/07/07 05:08:07;;;;;;;4.73;2.10;;;11.00;99.90;;;;;;5090574;28;20170;-89
2023/07/07 05:10:32;;;;;;;3.10;1.73;;;11.50;99.90;;;;;;5072701;28;20191;-89
2023/07/07 05:12:58;;;;;;;2.70;1.77;;;11.20;99.90;;;;;;5090736;28;20182;-89
2023/07/07 05:15:24;;;;;;;1.90;1.70;;;11.30;99.90;;;;;;5072571;28;20185;-89
2023/07/07 05:17:53;;;;;;;2.13;1.67;;;11.30;99.90;;;;;;5085617;28;20198;-89
2023/07/07 05:20:19;;;;;;;3.20;1.90;;;11.30;99.90;;;;;;5076643;28;20203;-89
2023/07/07 05:22:44;;;;;;;4.23;1.67;;;12.10;99.90;;;;;;5055718;28;20240;-89
2023/07/07 05:25:10;;;;;;;4.53;2.00;;;11.40;99.90;;;;;;5073009;28;20700;-89
2023/07/07 05:27:35;;;;;;;5.00;2.20;;;11.60;99.90;;;;;;5072505;28;20272;-89
2023/07/07 05:30:01;;;;;;;3.77;2.00;;;11.60;99.90;;;;;;5054864;28;20201;-89
2023/07/07 05:32:26;;;;;;;4.47;2.10;;;11.60;99.90;;;;;;5072679;28;20195;-89
2023/07/07 05:34:52;;;;;;;2.37;1.93;;;11.90;99.90;;;;;;5054517;28;20203;-89
2023/07/07 05:37:18;;;;;;;2.80;1.80;;;11.70;99.90;;;;;;5055140;28;20171;-89
2023/07/07 05:39:47;;;;;;;3.17;2.20;;;13.00;99.90;;;;;;5054309;28;20195;-90
2023/07/07 05:42:13;;;;;;;2.47;1.70;;;11.80;99.90;;;;;;5072412;28;20200;-89
2023/07/07 05:44:38;;;;;;;4.40;2.27;;;12.90;99.90;;;;;;5072312;28;20214;-90
2023/07/07 05:47:04;;;;;;;3.83;2.50;;;11.90;99.90;;;;;;5074793;28;20202;-90
2023/07/07 05:49:30;;;;;;;7.03;2.27;;;12.00;99.90;;;;;;5076201;28;20190;-89
2023/07/07 05:51:55;;;;;;;5.00;2.40;;;12.60;99.90;;;;;;5057827;28;20167;-90
2023/07/07 05:54:21;;;;;;;5.03;2.33;;;12.10;99.90;;;;;;5058406;28;20175;-89
2023/07/07 05:56:47;;;;;;;4.07;2.33;;;12.20;99.90;;;;;;5075885;28;20167;-89
2023/07/07 05:59:12;;;;;;;2.83;1.97;;;12.60;99.90;;;;;;5058026;28;20221;-89
2023/07/07 06:01:38;;;;;;;8.33;2.80;;;12.40;99.90;;;;;;5076761;28;20262;-89
2023/07/07 06:04:04;;;;;;;4.33;2.27;;;12.50;99.90;;;;;;5058902;28;20185;-90
2023/07/07 06:06:30;;;;;;;4.97;2.97;;;12.50;99.90;;;;;;5076269;28;20194;-90
2023/07/07 06:08:55;;;;;;;3.10;2.33;;;12.60;99.90;;;;;;5076354;28;20186;-89
2023/07/07 06:11:21;;;;;;;7.10;3.30;;;12.70;99.90;;;;;;5076309;28;20211;-90
2023/07/07 06:13:46;;;;;;;5.57;3.50;;;12.80;99.90;;;;;;5075556;28;20198;-89
2023/07/07 06:16:12;;;;;;;5.03;3.43;;;12.80;99.90;;;;;;5057940;28;20194;-89
2023/07/07 06:18:39;;;;;;;8.17;3.70;;;12.90;99.90;;;;;;5056862;28;20194;-90
2023/07/07 06:21:05;;;;;;;5.23;3.10;;;12.90;99.90;;;;;;5058183;28;20185;-89
2023/07/07 06:23:32;;;;;;;6.57;3.03;;;13.20;99.90;;;;;;5057429;28;20190;-89
2023/07/07 06:25:57;;;;;;;5.00;3.00;;;13.40;99.90;;;;;;5075301;28;20631;-89
2023/07/07 06:28:23;;;;;;;4.87;3.23;;;13.50;99.90;;;;;;5075376;28;20278;-89
2023/07/07 06:30:50;;;;;;;5.47;2.53;;;13.60;99.90;;;;;;5075152;28;20191;-89
2023/07/07 06:33:19;;;;;;;5.40;3.00;;;13.80;99.90;;;;;;5075052;28;20651;-89
2023/07/07 06:35:45;;;;;;;4.43;2.60;;;13.90;99.90;;;;;;5075008;28;20594;-89
2023/07/07 06:38:11;;;;;;;6.43;2.73;;;14.00;99.90;;;;;;5075901;28;20198;-89
2023/07/07 06:40:37;;;;;;;6.07;2.50;;;14.10;99.90;;;;;;5074947;28;20227;-90
2023/07/07 06:43:02;;;;;;;7.10;2.23;;;14.20;99.90;;;;;;5057203;28;20516;-90
2023/07/07 06:45:28;;;;;;;6.77;2.97;;;14.30;99.90;;;;;;5075027;28;20700;-89
2023/07/07 06:47:54;;;;;;;5.03;2.67;;;14.50;99.90;;;;;;5056794;28;20513;-90
2023/07/07 06:50:34;;;;;;;3.93;2.60;;;14.60;99.90;;;;;;5056867;28;20195;-90
2023/07/07 06:53:00;;;;;;;7.53;2.80;;;14.70;99.90;;;;;;5074760;28;20173;-89
2023/07/07 06:55:26;;;;;;;4.60;2.10;;;14.90;99.90;;;;;;5074622;28;20199;-89
2023/07/07 06:57:51;;;;;;;4.27;2.47;;;15.00;99.90;;;;;;5056025;28;20175;-90
2023/07/07 07:00:18;;;;;;;5.53;2.60;;;15.20;99.90;;;;;;5056297;28;20199;-89
2023/07/07 07:02:44;;;;;;;6.20;2.67;;;15.30;99.90;;;;;;5056636;28;20175;-90
2023/07/07 07:05:10;;;;;;;4.80;2.37;;;15.30;99.90;;;;;;5056320;28;20179;-89
2023/07/07 07:07:35;;;;;;;6.27;2.30;;;15.50;99.90;;;;;;5074318;28;20210;-89
2023/07/07 07:10:03;;;;;;;6.87;2.50;;;15.80;99.90;;;;;;5074143;28;20201;-90
2023/07/07 07:12:30;;;;;;;7.33;2.53;;;15.70;99.90;;;;;;5056225;28;20183;-89
2023/07/07 07:14:55;;;;;;;2.97;2.20;;;15.80;99.90;;;;;;5056087;28;20177;-90
2023/07/07 07:17:22;;;;;;;7.07;2.57;;;15.90;99.90;;;;;;5056196;28;20198;-90
2023/07/07 07:19:48;;;;;;;5.97;2.00;;;16.20;99.90;;;;;;5056215;28;20195;-90
2023/07/07 07:22:13;;;;;;;3.97;1.80;;;16.20;99.90;;;;;;5074548;28;20208;-90
2023/07/07 07:24:39;;;;;;;4.90;2.00;;;16.30;99.90;;;;;;5074189;28;20175;-90
2023/07/07 07:27:05;;;;;;;3.83;2.10;;;16.40;33.60;;;;;;5055853;28;20195;-90
2023/07/07 07:29:32;;;;;;;4.03;1.70;;;16.60;1.00;;;;;;5057323;28;20221;-90
2023/07/07 07:31:58;;;;;;;3.17;1.67;;;16.70;1.00;;;;;;5057501;28;20213;-90
2023/07/07 07:34:26;;;;;;;6.67;1.77;;;16.80;1.00;;;;;;5056530;28;20186;-89
2023/07/07 07:36:53;;;;;;;5.07;1.90;;;17.10;1.00;;;;;;5056290;28;20190;-90
2023/07/07 07:39:19;;;;;;;3.30;1.70;;;17.10;1.00;;;;;;5073816;28;20203;-90
2023/07/07 07:41:47;;;;;;;2.60;1.20;;;17.30;1.00;;;;;;5074095;28;20257;-90
2023/07/07 07:44:13;;;;;;;2.60;1.33;;;17.40;1.00;;;;;;5056490;28;20183;-90
2023/07/07 07:46:40;;;;;;;2.00;1.30;;;17.50;1.00;;;;;;5074787;28;20530;-90
2023/07/07 07:49:05;;;;;;;4.53;1.47;;;17.50;1.00;;;;;;5074414;28;20669;-90
2023/07/07 07:51:31;;;;;;;3.30;1.30;;;17.70;1.00;;;;;;5073901;28;20226;-90
2023/07/07 07:53:56;;;;;;;4.00;1.10;;;17.80;99.90;;;;;;5073864;28;20540;-90
2023/07/07 07:56:22;;;;;;;3.83;1.20;;;17.90;99.90;;;;;;5055486;28;20183;-90
2023/07/07 07:58:48;;;;;;;2.67;1.17;;;18.10;99.90;;;;;;5055695;28;20183;-90
2023/07/07 08:01:14;;;;;;;5.00;1.50;;;18.10;99.90;;;;;;5073987;28;20170;-90
2023/07/07 08:03:39;;;;;;;2.43;1.23;;;18.10;99.90;;;;;;5055608;28;20657;-90
2023/07/07 08:06:05;;;;;;;1.53;1.20;;;18.30;99.90;;;;;;5056875;28;20659;-90
2023/07/07 08:08:30;;;;;;;3.43;1.20;;;18.30;99.90;;;;;;5056017;28;20571;-90
2023/07/07 08:10:56;;;;;;;2.57;1.30;;;18.50;99.90;;;;;;5054735;28;20541;-90
2023/07/07 08:13:21;;;;;;;5.27;1.20;;;18.70;99.90;;;;;;5055561;28;20525;-90
2023/07/07 08:15:47;;;;;;;2.77;1.23;;;18.70;99.90;;;;;;5056055;28;20201;-90
2023/07/07 08:18:12;;;;;;;3.27;1.20;;;19.10;99.90;;;;;;5073123;28;20615;-90
2023/07/07 08:20:38;;;;;;;3.20;1.20;;;19.20;99.90;;;;;;5073545;28;20304;-90
2023/07/07 08:23:05;;;;;;;3.10;1.30;;;19.10;99.90;;;;;;5073771;28;20175;-90
2023/07/07 08:25:34;;;;;;;2.07;1.40;;;19.40;99.90;;;;;;5055423;28;20198;-90
2023/07/07 08:28:00;;;;;;;4.23;1.30;;;19.50;99.90;;;;;;5055628;28;20205;-90
2023/07/07 08:30:25;;;;;;;2.27;1.23;;;19.60;99.90;;;;;;5074100;28;20556;-90
2023/07/07 08:32:51;;;;;;;5.97;1.60;;;19.70;99.90;;;;;;5073197;28;20238;-90
2023/07/07 08:35:17;;;;;;;1.67;1.20;;;19.90;1.00;;;;;;5073304;28;20194;-90
2023/07/07 08:37:42;;;;;;;2.83;1.00;;;19.90;1.00;;;;;;5056441;28;20190;-90
2023/07/07 08:40:17;;;;;;;3.00;1.37;;;20.00;33.20;;;;;;5073188;28;20194;-90
2023/07/07 08:42:45;;;;;;;4.17;1.27;;;20.20;1.00;;;;;;5073235;28;20167;-90
2023/07/07 08:45:18;;;;;;;5.27;1.10;;;20.20;2.90;;;;;;5055364;28;20190;-90
2023/07/07 08:47:52;;;;;;;2.67;1.30;;;20.30;12.50;;;;;;5054970;28;20203;-90
2023/07/07 08:50:36;;;;;;;2.30;1.33;;;20.50;42.30;;;;;;5055244;28;20687;-90
2023/07/07 08:53:13;;;;;;;2.57;1.37;;;20.50;21.20;;;;;;5073497;28;20167;-90
2023/07/07 08:55:59;;;;;;;4.37;1.17;;;20.60;41.40;;;;;;5055902;28;20248;-91
2023/07/07 08:58:52;;;;;;;5.47;1.20;;;20.70;53.20;;;;;;5056217;28;20529;-90
2023/07/07 09:01:54;;;;;;;2.43;1.30;;;20.90;8.40;;;;;;5073263;28;20172;-90
2023/07/07 09:04:51;;;;;;;2.33;1.13;;;20.90;1.00;;;;;;5073259;28;20212;-90
2023/07/07 09:07:29;;;;;;;1.70;1.20;;;21.10;1.00;;;;;;5018369;28;20286;-90
2023/07/07 09:10:06;;;;;;;4.63;1.50;;;21.20;1.00;;;;;;5073560;28;20194;-91
2023/07/07 09:12:44;;;;;;;3.37;1.30;;;21.30;1.00;;;;;;5055051;28;20194;-90
2023/07/07 09:15:18;;;;;;;2.50;1.40;;;21.30;1.00;;;;;;5055310;28;20194;-90
2023/07/07 09:17:48;;;;;;;2.80;1.43;;;21.40;1.00;;;;;;5055194;28;20247;-90
2023/07/07 09:20:15;;;;;;;4.40;1.60;;;21.70;1.00;;;;;;5073201;28;20195;-90
2023/07/07 09:23:07;;;;;;;2.90;1.47;;;21.60;1.00;;;;;;5078475;28;20175;-90
2023/07/07 09:25:58;;;;;;;3.93;1.20;;;21.90;1.00;;;;;;5077032;28;20155;-91
2023/07/07 09:28:27;;;;;;;2.80;1.23;;;21.90;1.00;;;;;;5058809;28;20622;-90
2023/07/07 09:31:15;;;;;;;4.17;1.63;;;22.00;1.00;;;;;;5058794;28;20281;-90
2023/07/07 09:33:41;;;;;;;2.17;1.47;;;22.00;1.00;;;;;;5059152;28;20167;-90
2023/07/07 09:36:16;;;;;;;2.57;1.30;;;22.20;99.90;;;;;;5059004;28;20259;-91
2023/07/07 09:38:53;;;;;;;2.63;1.67;;;22.30;99.90;;;;;;5059054;28;20190;-90
2023/07/07 09:41:42;;;;;;;3.60;1.70;;;22.40;99.90;;;;;;5076811;28;20163;-91
2023/07/07 09:44:45;;;;;;;3.67;1.70;;;22.50;27.70;;;;;;5058302;28;20224;-90
2023/07/07 09:47:41;;;;;;;2.13;1.43;;;22.60;99.90;;;;;;5076460;28;20249;-90
2023/07/07 09:50:20;;;;;;;3.97;1.60;;;22.70;99.90;;;;;;5059121;28;20244;-90
2023/07/07 09:52:48;;;;;;;2.27;1.30;;;22.80;99.90;;;;;;5058531;28;20167;-90
2023/07/07 09:55:27;;;;;;;3.30;1.30;;;23.00;1.00;;;;;;5076397;28;20262;-90
2023/07/07 09:58:18;;;;;;;5.63;1.70;;;23.10;1.00;;;;;;5059508;28;20167;-90
2023/07/07 10:00:48;;;;;;;1.60;1.27;;;23.20;13.60;;;;;;5058359;28;20224;-91
2023/07/07 10:03:21;;;;;;;2.87;1.40;;;23.30;6.60;;;;;;5076969;28;20181;-90
2023/07/07 10:05:49;;;;;;;3.63;1.40;;;23.30;92.30;;;;;;5076321;28;20186;-90
2023/07/07 10:08:15;;;;;;;2.97;1.50;;;23.30;1.00;;;;;;5058649;28;20179;-91
2023/07/07 10:10:40;;;;;;;3.63;1.73;;;23.50;1.00;;;;;;5058522;28;20217;-91
2023/07/07 10:13:14;;;;;;;3.87;1.87;;;23.40;1.00;;;;;;5058324;28;20175;-90
2023/07/07 10:16:00;;;;;;;2.80;1.70;;;23.60;1.00;;;;;;5058892;28;20239;-91
2023/07/07 10:18:28;;;;;;;3.13;1.83;;;23.60;1.00;;;;;;5058037;28;20191;-91
2023/07/07 10:20:57;;;;;;;2.50;1.60;;;23.60;99.90;;;;;;5057496;28;20410;-91
2023/07/07 10:23:26;;;;;;;3.97;1.90;;;23.80;1.00;;;;;;5076239;28;20640;-91
2023/07/07 10:25:52;;;;;;;2.03;1.57;;;24.00;1.00;;;;;;5076279;28;20191;-90
2023/07/07 10:28:19;;;;;;;3.20;1.57;;;23.90;1.00;;;;;;5057536;28;20181;-91
2023/07/07 10:30:45;;;;;;;2.47;1.53;;;24.30;99.90;;;;;;5057929;28;20202;-91
2023/07/07 10:33:14;;;;;;;3.80;1.60;;;24.20;99.90;;;;;;5056654;28;20656;-91
2023/07/07 10:35:40;;;;;;;3.47;2.00;;;24.10;1.00;;;;;;5058167;28;20179;-91
2023/07/07 10:38:06;;;;;;;6.20;1.50;;;24.20;99.90;;;;;;5058092;28;20198;-91
2023/07/07 10:40:32;;;;;;;4.13;1.73;;;24.50;99.90;;;;;;5057502;28;20202;-91
2023/07/07 10:42:58;;;;;;;2.13;1.53;;;24.40;1.00;;;;;;5058327;28;20229;-90
2023/07/07 10:45:24;;;;;;;3.10;1.90;;;24.40;1.00;;;;;;5058004;28;20171;-91
2023/07/07 10:47:50;;;;;;;4.00;1.77;;;24.60;99.90;;;;;;5058109;28;20411;-91
2023/07/07 10:50:22;;;;;;;3.00;1.53;;;24.60;99.90;;;;;;5058389;28;20527;-90
2023/07/07 10:53:07;;;;;;;2.70;1.67;;;24.80;1.00;;;;;;5058411;28;20175;-91
2023/07/07 10:56:10;;;;;;;2.00;1.40;;;24.90;1.00;;;;;;5057582;28;20629;-91
2023/07/07 10:59:06;;;;;;;2.80;1.70;;;24.90;1.00;;;;;;5058079;28;20167;-90
2023/07/07 11:01:59;;;;;;;3.57;1.70;;;25.00;1.00;;;;;;5057800;28;20163;-91
2023/07/07 11:05:12;;;;;;;2.03;1.50;;;25.00;1.00;;;;;;5057886;28;20167;-91
2023/07/07 11:07:52;;;;;;;3.90;1.80;;;25.00;1.00;;;;;;5027045;28;20218;-91
2023/07/07 11:10:49;;;;;;;2.27;1.60;;;25.00;99.90;;;;;;5057457;28;20222;-91
2023/07/07 11:13:45;;;;;;;4.15;1.70;;;25.10;1.00;;;;;;5056877;28;20194;-91
2023/07/07 11:16:11;;;;;;;2.92;1.55;;;25.10;99.90;;;;;;5057774;28;20357;-91
2023/07/07 11:18:48;;;;;;;4.20;2.17;;;25.20;85.30;;;;;;5057296;28;20214;-90
2023/07/07 11:21:25;;;;;;;2.05;1.75;;;25.20;99.90;;;;;;5056567;28;20539;-91
2023/07/07 11:24:10;;;;;;;4.80;1.80;;;25.30;99.90;;;;;;5057254;28;20198;-91
2023/07/07 11:26:59;;;;;;;2.20;1.70;;;25.40;99.90;;;;;;5057267;28;20611;-91
2023/07/07 11:29:40;;;;;;;3.07;1.70;;;25.50;1.00;;;;;;5057283;28;20206;-91
2023/07/07 11:32:17;;;;;;;3.40;1.73;;;25.60;1.00;;;;;;5056750;28;20167;-91
2023/07/07 11:35:21;;;;;;;5.35;1.90;;;25.60;99.90;;;;;;5056932;28;20489;-91
2023/07/07 11:38:15;;;;;;;3.10;1.80;;;25.70;1.00;;;;;;5030276;28;20222;-91
2023/07/07 11:40:43;;;;;;;3.22;1.67;;;25.80;99.90;;;;;;5056470;28;20199;-91
2023/07/07 11:43:58;;;;;;;3.92;1.85;;;25.80;99.90;;;;;;5056565;28;20175;-91
2023/07/07 11:46:32;;;;;;;4.10;1.65;;;25.90;1.00;;;;;;4977091;28;20205;-91
2023/07/07 11:49:15;;;;;;;2.58;1.67;;;25.90;1.00;;;;;;4993257;28;20287;-91
2023/07/07 11:52:02;;;;;;;3.78;1.75;;;26.00;1.00;;;;;;5045533;28;20179;-91
2023/07/07 11:55:00;;;;;;;5.47;1.88;;;26.00;1.00;;;;;;5043303;28;20286;-91
2023/07/07 11:57:45;;;;;;;1.80;1.23;;;26.10;99.90;;;;;;4986222;28;20196;-91
2023/07/07 12:00:23;;;;;;;2.47;1.88;;;26.30;99.90;;;;;;5056200;28;20205;-91
2023/07/07 12:03:03;;;;;;;2.25;1.42;;;26.30;99.90;;;;;;5057134;28;20182;-91
2023/07/07 12:05:34;;;;;;;3.67;1.80;;;26.30;99.90;;;;;;5056341;28;20174;-91
2023/07/07 12:08:15;;;;;;;2.13;1.50;;;26.40;99.90;;;;;;5056748;28;20625;-91
2023/07/07 12:10:48;;;;;;;2.97;1.63;;;26.40;99.90;;;;;;5056282;28;20194;-91
2023/07/07 12:13:30;;;;;;;4.93;2.00;;;26.60;99.90;;;;;;5056337;28;20170;-91
2023/07/07 12:16:19;;;;;;;4.90;2.03;;;26.40;1.00;;;;;;5056195;28;20194;-91
2023/07/07 12:18:49;;;;;;;3.03;1.63;;;26.60;1.00;;;;;;5056146;28;20218;-91
2023/07/07 12:21:20;;;;;;;2.55;1.77;;;26.70;1.00;;;;;;5056507;28;20518;-91
2023/07/07 12:24:11;;;;;;;3.88;1.67;;;26.70;1.00;;;;;;5056124;28;20163;-91
2023/07/07 12:26:44;;;;;;;1.60;1.40;;;26.80;1.00;;;;;;5056105;28;20628;-91
2023/07/07 12:29:13;;;;;;;2.47;1.63;;;26.90;1.00;;;;;;5056250;28;20612;-91
2023/07/07 12:31:39;;;;;;;3.83;1.50;;;26.90;1.00;;;;;;5073801;28;20657;-91
2023/07/07 12:34:36;;;;;;;2.03;1.70;;;27.10;1.00;;;;;;5055538;28;20206;-91
2023/07/07 12:37:11;;;;;;;1.92;1.45;;;27.00;1.00;;;;;;5056090;28;20510;-91
2023/07/07 12:39:36;;;;;;;1.90;1.60;;;27.10;1.00;;;;;;5055237;28;20563;-91
2023/07/07 12:42:04;;;;;;;2.63;1.65;;;27.30;1.00;;;;;;5055742;28;20174;-91
2023/07/07 12:44:31;;;;;;;2.63;1.80;;;27.30;1.00;;;;;;5055786;28;20719;-91
2023/07/07 12:46:58;;;;;;;6.32;1.65;;;27.30;1.00;;;;;;5056287;28;20198;-91
2023/07/07 12:49:26;;;;;;;2.58;1.50;;;27.40;1.00;;;;;;5055196;28;20688;-91
2023/07/07 12:51:58;;;;;;;6.07;1.63;;;27.40;1.00;;;;;;5056525;28;20210;-91
2023/07/07 12:54:33;;;;;;;2.38;1.45;;;27.40;1.00;;;;;;5055985;28;20201;-91
2023/07/07 12:57:11;;;;;;;2.00;1.70;;;27.50;1.00;;;;;;5060699;28;20243;-91
2023/07/07 12:59:40;;;;;;;4.55;1.58;;;27.50;1.00;;;;;;5080097;28;20220;-92
2023/07/07 13:02:23;;;;;;;1.75;1.60;;;27.60;1.00;;;;;;5061987;28;20170;-92
2023/07/07 13:05:21;;;;;;;1.70;1.40;;;27.70;99.90;;;;;;5061699;28;20175;-91
2023/07/07 13:07:58;;;;;;;7.13;1.83;;;27.60;99.90;;;;;;5061394;28;20266;-91
2023/07/07 13:10:40;;;;;;;2.75;1.77;;;27.60;1.00;;;;;;5062189;28;20200;-91